sensor_id;sensor_type;location;lat;lon;timestamp;pressure;altitude;pressure_sealevel;temperature;humidity
5500;BME280;2772;42.700;23.304;2022-09-09T00:01:10;95321.50;;;20.09;100.00
5500;BME280;2772;42.700;23.304;2022-09-09T00:03:53;95329.00;;;20.16;100.00
5500;BME280;2772;42.700;23.304;2022-09-09T00:06:23;95330.75;;;20.08;100.00
5500;BME280;2772;42.700;23.304;2022-09-09T00:08:58;95321.41;;;20.02;100.00
5500;BME280;2772;42.700;23.304;2022-09-09T00:11:30;95324.38;;;19.97;100.00
5500;BME280;2772;42.700;23.304;2022-09-09T00:14:00;95325.47;;;19.93;100.00
5500;BME280;2772;42.700;23.304;2022-09-09T00:16:32;95325.69;;;19.84;100.00
5500;BME280;2772;42.700;23.304;2022-09-09T00:19:07;95328.00;;;19.82;100.00
5500;BME280;2772;42.700;23.304;2022-09-09T00:21:36;95317.19;;;19.82;100.00
5500;BME280;2772;42.700;23.304;2022-09-09T00:24:11;95305.00;;;19.92;100.00
5500;BME280;2772;42.700;23.304;2022-09-09T00:26:48;95302.75;;;19.97;100.00
5500;BME280;2772;42.700;23.304;2022-09-09T00:29:25;95296.09;;;19.91;100.00
5500;BME280;2772;42.700;23.304;2022-09-09T00:31:54;95294.28;;;19.99;100.00
5500;BME280;2772;42.700;23.304;2022-09-09T00:34:27;95297.28;;;19.94;100.00
5500;BME280;2772;42.700;23.304;2022-09-09T00:36:54;95282.56;;;19.91;100.00
5500;BME280;2772;42.700;23.304;2022-09-09T00:39:29;95284.91;;;19.93;100.00
5500;BME280;2772;42.700;23.304;2022-09-09T00:42:12;95276.50;;;19.98;100.00
5500;BME280;2772;42.700;23.304;2022-09-09T00:44:49;95274.53;;;19.95;100.00
5500;BME280;2772;42.700;23.304;2022-09-09T00:47:30;95289.72;;;20.03;100.00
5500;BME280;2772;42.700;23.304;2022-09-09T00:50:15;95290.13;;;20.05;100.00
5500;BME280;2772;42.700;23.304;2022-09-09T00:52:46;95287.44;;;20.05;100.00
5500;BME280;2772;42.700;23.304;2022-09-09T00:55:23;95286.69;;;20.08;100.00
5500;BME280;2772;42.700;23.304;2022-09-09T00:57:52;95279.31;;;20.05;100.00
5500;BME280;2772;42.700;23.304;2022-09-09T01:00:22;95285.16;;;20.07;100.00
5500;BME280;2772;42.700;23.304;2022-09-09T01:02:59;95285.16;;;20.07;100.00
5500;BME280;2772;42.700;23.304;2022-09-09T01:05:36;95288.28;;;20.09;100.00
5500;BME280;2772;42.700;23.304;2022-09-09T01:08:21;95293.91;;;20.00;100.00
5500;BME280;2772;42.700;23.304;2022-09-09T01:10:53;95293.94;;;19.78;100.00
5500;BME280;2772;42.700;23.304;2022-09-09T01:13:24;95286.09;;;19.73;100.00
5500;BME280;2772;42.700;23.304;2022-09-09T01:15:53;95305.09;;;19.76;100.00
5500;BME280;2772;42.700;23.304;2022-09-09T01:18:21;95298.97;;;19.79;100.00
5500;BME280;2772;42.700;23.304;2022-09-09T01:21:01;95291.81;;;19.68;100.00
5500;BME280;2772;42.700;23.304;2022-09-09T01:23:47;95283.59;;;19.61;100.00
5500;BME280;2772;42.700;23.304;2022-09-09T01:26:26;95270.72;;;19.54;100.00
5500;BME280;2772;42.700;23.304;2022-09-09T01:28:54;95278.09;;;19.57;100.00
5500;BME280;2772;42.700;23.304;2022-09-09T01:31:26;95274.06;;;19.48;100.00
5500;BME280;2772;42.700;23.304;2022-09-09T01:33:54;95281.81;;;19.49;100.00
5500;BME280;2772;42.700;23.304;2022-09-09T01:36:38;95286.94;;;19.54;100.00
5500;BME280;2772;42.700;23.304;2022-09-09T01:39:06;95295.75;;;19.51;100.00
5500;BME280;2772;42.700;23.304;2022-09-09T01:41:34;95301.22;;;19.55;100.00
5500;BME280;2772;42.700;23.304;2022-09-09T01:44:02;95300.00;;;19.52;100.00
5500;BME280;2772;42.700;23.304;2022-09-09T01:46:29;95294.97;;;19.51;100.00
5500;BME280;2772;42.700;23.304;2022-09-09T01:48:57;95294.25;;;19.54;100.00
5500;BME280;2772;42.700;23.304;2022-09-09T01:51:24;95304.34;;;19.57;100.00
5500;BME280;2772;42.700;23.304;2022-09-09T01:53:51;95308.19;;;19.56;100.00
5500;BME280;2772;42.700;23.304;2022-09-09T01:56:29;95310.91;;;19.56;100.00
5500;BME280;2772;42.700;23.304;2022-09-09T01:59:05;95300.16;;;19.59;100.00
5500;BME280;2772;42.700;23.304;2022-09-09T02:01:44;95301.28;;;19.58;100.00
5500;BME280;2772;42.700;23.304;2022-09-09T02:04:31;95303.50;;;19.53;100.00
5500;BME280;2772;42.700;23.304;2022-09-09T02:07:02;95302.59;;;19.45;100.00
5500;BME280;2772;42.700;23.304;2022-09-09T02:09:30;95304.97;;;19.50;100.00
5500;BME280;2772;42.700;23.304;2022-09-09T02:12:00;95296.75;;;19.43;100.00
5500;BME280;2772;42.700;23.304;2022-09-09T02:14:35;95283.47;;;19.35;100.00
5500;BME280;2772;42.700;23.304;2022-09-09T02:17:08;95274.94;;;19.33;100.00
5500;BME280;2772;42.700;23.304;2022-09-09T02:19:38;95284.03;;;19.44;100.00
5500;BME280;2772;42.700;23.304;2022-09-09T02:22:09;95282.03;;;19.22;100.00
5500;BME280;2772;42.700;23.304;2022-09-09T02:24:39;95280.25;;;19.10;100.00
5500;BME280;2772;42.700;23.304;2022-09-09T02:27:08;95287.91;;;19.08;100.00
5500;BME280;2772;42.700;23.304;2022-09-09T02:29:40;95295.75;;;19.13;100.00
5500;BME280;2772;42.700;23.304;2022-09-09T02:32:11;95291.47;;;19.12;100.00
5500;BME280;2772;42.700;23.304;2022-09-09T02:34:42;95293.03;;;19.13;100.00
5500;BME280;2772;42.700;23.304;2022-09-09T02:37:10;95294.19;;;19.12;100.00
5500;BME280;2772;42.700;23.304;2022-09-09T02:39:38;95298.09;;;19.15;100.00
5500;BME280;2772;42.700;23.304;2022-09-09T02:42:05;95306.09;;;19.11;100.00
5500;BME280;2772;42.700;23.304;2022-09-09T02:44:32;95303.72;;;19.06;100.00
5500;BME280;2772;42.700;23.304;2022-09-09T02:47:10;95307.81;;;19.00;100.00
5500;BME280;2772;42.700;23.304;2022-09-09T02:49:45;95313.56;;;18.98;100.00
5500;BME280;2772;42.700;23.304;2022-09-09T02:52:19;95303.81;;;18.94;100.00
5500;BME280;2772;42.700;23.304;2022-09-09T02:54:49;95297.84;;;18.85;100.00
5500;BME280;2772;42.700;23.304;2022-09-09T02:57:25;95301.97;;;18.79;100.00
5500;BME280;2772;42.700;23.304;2022-09-09T02:59:53;95299.97;;;18.76;100.00
5500;BME280;2772;42.700;23.304;2022-09-09T03:02:24;95308.41;;;18.74;100.00
5500;BME280;2772;42.700;23.304;2022-09-09T03:04:51;95306.50;;;18.75;100.00
5500;BME280;2772;42.700;23.304;2022-09-09T03:07:19;95311.66;;;18.64;100.00
5500;BME280;2772;42.700;23.304;2022-09-09T03:09:45;95312.19;;;18.70;100.00
5500;BME280;2772;42.700;23.304;2022-09-09T03:12:12;95307.41;;;18.63;100.00
5500;BME280;2772;42.700;23.304;2022-09-09T03:14:39;95313.50;;;18.60;100.00
5500;BME280;2772;42.700;23.304;2022-09-09T03:17:06;95309.22;;;18.59;100.00
5500;BME280;2772;42.700;23.304;2022-09-09T03:19:35;95302.88;;;18.52;100.00
5500;BME280;2772;42.700;23.304;2022-09-09T03:22:03;95306.88;;;18.58;100.00
5500;BME280;2772;42.700;23.304;2022-09-09T03:24:30;95299.22;;;18.60;100.00
5500;BME280;2772;42.700;23.304;2022-09-09T03:26:57;95298.78;;;18.58;100.00
5500;BME280;2772;42.700;23.304;2022-09-09T03:29:24;95305.50;;;18.64;100.00
5500;BME280;2772;42.700;23.304;2022-09-09T03:31:51;95303.59;;;18.49;100.00
5500;BME280;2772;42.700;23.304;2022-09-09T03:34:17;95299.09;;;18.53;100.00
5500;BME280;2772;42.700;23.304;2022-09-09T03:36:45;95298.28;;;18.52;100.00
5500;BME280;2772;42.700;23.304;2022-09-09T03:39:14;95292.97;;;18.56;100.00
5500;BME280;2772;42.700;23.304;2022-09-09T03:41:40;95289.06;;;18.53;100.00
5500;BME280;2772;42.700;23.304;2022-09-09T03:44:07;95292.09;;;18.52;100.00
5500;BME280;2772;42.700;23.304;2022-09-09T03:46:34;95298.19;;;18.49;100.00
5500;BME280;2772;42.700;23.304;2022-09-09T03:49:01;95305.00;;;18.43;100.00
5500;BME280;2772;42.700;23.304;2022-09-09T03:51:28;95301.69;;;18.49;100.00
5500;BME280;2772;42.700;23.304;2022-09-09T03:53:56;95306.19;;;18.61;100.00
5500;BME280;2772;42.700;23.304;2022-09-09T03:56:23;95306.88;;;18.58;100.00
5500;BME280;2772;42.700;23.304;2022-09-09T03:58:50;95314.72;;;18.63;100.00
5500;BME280;2772;42.700;23.304;2022-09-09T04:01:17;95306.19;;;18.61;100.00
5500;BME280;2772;42.700;23.304;2022-09-09T04:03:44;95306.03;;;18.54;100.00
5500;BME280;2772;42.700;23.304;2022-09-09T04:06:12;95314.28;;;18.61;100.00
5500;BME280;2772;42.700;23.304;2022-09-09T04:08:40;95315.50;;;18.63;100.00
5500;BME280;2772;42.700;23.304;2022-09-09T04:11:09;95312.09;;;18.66;100.00
5500;BME280;2772;42.700;23.304;2022-09-09T04:13:37;95315.38;;;18.75;100.00
5500;BME280;2772;42.700;23.304;2022-09-09T04:16:05;95304.56;;;18.75;100.00
5500;BME280;2772;42.700;23.304;2022-09-09T04:18:32;95307.91;;;18.69;100.00
5500;BME280;2772;42.700;23.304;2022-09-09T04:20:59;95305.63;;;18.71;100.00
5500;BME280;2772;42.700;23.304;2022-09-09T04:23:28;95306.94;;;18.77;100.00
5500;BME280;2772;42.700;23.304;2022-09-09T04:25:56;95301.16;;;18.78;100.00
5500;BME280;2772;42.700;23.304;2022-09-09T04:28:26;95315.09;;;18.80;100.00
5500;BME280;2772;42.700;23.304;2022-09-09T04:30:54;95316.75;;;18.85;100.00
5500;BME280;2772;42.700;23.304;2022-09-09T04:33:23;95311.69;;;18.83;100.00
5500;BME280;2772;42.700;23.304;2022-09-09T04:35:52;95312.22;;;18.89;100.00
5500;BME280;2772;42.700;23.304;2022-09-09T04:38:19;95321.69;;;18.83;100.00
5500;BME280;2772;42.700;23.304;2022-09-09T04:40:48;95320.00;;;18.75;100.00
5500;BME280;2772;42.700;23.304;2022-09-09T04:43:17;95311.66;;;18.64;100.00
5500;BME280;2772;42.700;23.304;2022-09-09T04:45:47;95319.41;;;18.66;100.00
5500;BME280;2772;42.700;23.304;2022-09-09T04:48:14;95313.50;;;18.60;100.00
5500;BME280;2772;42.700;23.304;2022-09-09T04:50:41;95311.31;;;18.66;100.00
5500;BME280;2772;42.700;23.304;2022-09-09T04:53:08;95307.50;;;18.67;100.00
5500;BME280;2772;42.700;23.304;2022-09-09T04:55:35;95306.50;;;18.75;100.00
5500;BME280;2772;42.700;23.304;2022-09-09T04:58:03;95301.53;;;18.77;100.00
5500;BME280;2772;42.700;23.304;2022-09-09T05:00:31;95301.25;;;18.82;100.00
5500;BME280;2772;42.700;23.304;2022-09-09T05:03:02;95305.09;;;18.81;100.00
5500;BME280;2772;42.700;23.304;2022-09-09T05:05:29;95301.41;;;18.89;100.00
5500;BME280;2772;42.700;23.304;2022-09-09T05:08:01;95293.81;;;18.94;100.00
5500;BME280;2772;42.700;23.304;2022-09-09T05:10:28;95282.47;;;19.05;100.00
5500;BME280;2772;42.700;23.304;2022-09-09T05:12:55;95286.94;;;19.16;100.00
5500;BME280;2772;42.700;23.304;2022-09-09T05:15:22;95299.06;;;19.26;100.00
5500;BME280;2772;42.700;23.304;2022-09-09T05:17:48;95301.41;;;19.27;100.00
5500;BME280;2772;42.700;23.304;2022-09-09T05:20:19;95303.88;;;19.32;100.00
5500;BME280;2772;42.700;23.304;2022-09-09T05:22:46;95288.78;;;19.50;100.00
5500;BME280;2772;42.700;23.304;2022-09-09T05:25:14;95291.47;;;19.50;100.00
5500;BME280;2772;42.700;23.304;2022-09-09T05:27:41;95297.47;;;19.59;100.00
5500;BME280;2772;42.700;23.304;2022-09-09T05:30:09;95296.03;;;19.65;100.00
5500;BME280;2772;42.700;23.304;2022-09-09T05:32:36;95299.69;;;19.76;100.00
5500;BME280;2772;42.700;23.304;2022-09-09T05:35:03;95296.38;;;19.86;100.00
5500;BME280;2772;42.700;23.304;2022-09-09T05:37:32;95302.31;;;19.95;100.00
5500;BME280;2772;42.700;23.304;2022-09-09T05:39:58;95300.91;;;20.01;100.00
5500;BME280;2772;42.700;23.304;2022-09-09T05:42:29;95306.72;;;20.03;100.00
5500;BME280;2772;42.700;23.304;2022-09-09T05:44:57;95314.28;;;20.13;100.00
5500;BME280;2772;42.700;23.304;2022-09-09T05:47:23;95310.47;;;20.18;100.00
5500;BME280;2772;42.700;23.304;2022-09-09T05:49:53;95312.03;;;20.19;100.00
5500;BME280;2772;42.700;23.304;2022-09-09T05:52:20;95312.22;;;20.29;100.00
5500;BME280;2772;42.700;23.304;2022-09-09T05:54:49;95310.78;;;20.35;100.00
5500;BME280;2772;42.700;23.304;2022-09-09T05:57:16;95312.81;;;20.42;100.00
5500;BME280;2772;42.700;23.304;2022-09-09T05:59:44;95310.50;;;20.44;100.00
5500;BME280;2772;42.700;23.304;2022-09-09T06:02:11;95311.03;;;20.53;100.00
5500;BME280;2772;42.700;23.304;2022-09-09T06:04:39;95323.88;;;20.60;100.00
5500;BME280;2772;42.700;23.304;2022-09-09T06:07:05;95321.88;;;20.79;100.00
5500;BME280;2772;42.700;23.304;2022-09-09T06:09:32;95323.84;;;20.82;100.00
5500;BME280;2772;42.700;23.304;2022-09-09T06:12:01;95327.66;;;20.78;100.00
5500;BME280;2772;42.700;23.304;2022-09-09T06:14:27;95321.94;;;20.83;100.00
5500;BME280;2772;42.700;23.304;2022-09-09T06:16:54;95319.56;;;20.81;100.00
5500;BME280;2772;42.700;23.304;2022-09-09T06:19:22;95323.66;;;20.68;100.00
5500;BME280;2772;42.700;23.304;2022-09-09T06:21:49;95327.53;;;20.71;100.00
5500;BME280;2772;42.700;23.304;2022-09-09T06:24:16;95320.25;;;21.01;100.00
5500;BME280;2772;42.700;23.304;2022-09-09T06:26:44;95322.69;;;21.09;100.00
5500;BME280;2772;42.700;23.304;2022-09-09T06:29:13;95328.59;;;21.15;100.00
5500;BME280;2772;42.700;23.304;2022-09-09T06:31:39;95327.94;;;21.25;100.00
5500;BME280;2772;42.700;23.304;2022-09-09T06:34:08;95326.53;;;21.38;100.00
5500;BME280;2772;42.700;23.304;2022-09-09T06:36:36;95332.06;;;21.45;100.00
5500;BME280;2772;42.700;23.304;2022-09-09T06:39:03;95312.34;;;21.48;100.00
5500;BME280;2772;42.700;23.304;2022-09-09T06:41:31;95315.16;;;21.58;100.00
5500;BME280;2772;42.700;23.304;2022-09-09T06:43:59;95308.31;;;21.68;100.00
5500;BME280;2772;42.700;23.304;2022-09-09T06:46:29;95316.84;;;21.70;100.00
5500;BME280;2772;42.700;23.304;2022-09-09T06:48:58;95312.97;;;21.71;100.00
5500;BME280;2772;42.700;23.304;2022-09-09T06:51:26;95330.56;;;21.80;100.00
5500;BME280;2772;42.700;23.304;2022-09-09T06:53:55;95327.13;;;21.87;100.00
5500;BME280;2772;42.700;23.304;2022-09-09T06:56:23;95329.16;;;21.97;100.00
5500;BME280;2772;42.700;23.304;2022-09-09T06:58:51;95336.25;;;22.09;100.00
5500;BME280;2772;42.700;23.304;2022-09-09T07:01:21;95336.69;;;22.14;100.00
5500;BME280;2772;42.700;23.304;2022-09-09T07:03:50;95332.88;;;22.22;100.00
5500;BME280;2772;42.700;23.304;2022-09-09T07:06:19;95338.34;;;22.26;100.00
5500;BME280;2772;42.700;23.304;2022-09-09T07:08:50;95343.84;;;22.33;100.00
5500;BME280;2772;42.700;23.304;2022-09-09T07:11:19;95334.97;;;22.36;100.00
5500;BME280;2772;42.700;23.304;2022-09-09T07:13:46;95333.09;;;22.43;100.00
5500;BME280;2772;42.700;23.304;2022-09-09T07:16:15;95323.91;;;22.58;100.00
5500;BME280;2772;42.700;23.304;2022-09-09T07:18:43;95323.97;;;22.65;100.00
5500;BME280;2772;42.700;23.304;2022-09-09T07:21:12;95331.03;;;22.77;100.00
5500;BME280;2772;42.700;23.304;2022-09-09T07:23:40;95329.91;;;22.85;100.00
5500;BME280;2772;42.700;23.304;2022-09-09T07:26:10;95323.72;;;22.88;100.00
5500;BME280;2772;42.700;23.304;2022-09-09T07:28:38;95324.63;;;23.06;99.34
5500;BME280;2772;42.700;23.304;2022-09-09T07:31:05;95323.88;;;23.12;100.00
5500;BME280;2772;42.700;23.304;2022-09-09T07:33:33;95325.50;;;23.24;100.00
5500;BME280;2772;42.700;23.304;2022-09-09T07:36:06;95317.38;;;23.27;100.00
5500;BME280;2772;42.700;23.304;2022-09-09T07:38:39;95321.25;;;23.26;99.82
5500;BME280;2772;42.700;23.304;2022-09-09T07:41:07;95326.34;;;23.35;98.16
5500;BME280;2772;42.700;23.304;2022-09-09T07:43:37;95335.72;;;23.44;97.53
5500;BME280;2772;42.700;23.304;2022-09-09T07:46:06;95332.63;;;23.46;92.75
5500;BME280;2772;42.700;23.304;2022-09-09T07:48:33;95331.91;;;23.63;95.75
5500;BME280;2772;42.700;23.304;2022-09-09T07:51:05;95326.50;;;23.77;90.98
5500;BME280;2772;42.700;23.304;2022-09-09T07:53:33;95327.66;;;23.73;91.04
5500;BME280;2772;42.700;23.304;2022-09-09T07:56:08;95332.75;;;23.85;91.42
5500;BME280;2772;42.700;23.304;2022-09-09T07:58:36;95330.09;;;23.99;90.65
5500;BME280;2772;42.700;23.304;2022-09-09T08:01:08;95317.28;;;24.13;90.01
5500;BME280;2772;42.700;23.304;2022-09-09T08:03:35;95330.13;;;24.23;89.67
5500;BME280;2772;42.700;23.304;2022-09-09T08:06:02;95327.41;;;24.34;87.17
5500;BME280;2772;42.700;23.304;2022-09-09T08:08:29;95320.81;;;24.38;89.24
5500;BME280;2772;42.700;23.304;2022-09-09T08:11:04;95320.78;;;24.45;86.72
5500;BME280;2772;42.700;23.304;2022-09-09T08:13:34;95323.91;;;24.44;86.30
5500;BME280;2772;42.700;23.304;2022-09-09T08:16:09;95314.19;;;24.50;88.23
5500;BME280;2772;42.700;23.304;2022-09-09T08:18:38;95320.03;;;24.59;86.86
5500;BME280;2772;42.700;23.304;2022-09-09T08:21:07;95320.78;;;24.59;86.65
5500;BME280;2772;42.700;23.304;2022-09-09T08:23:35;95319.63;;;24.64;86.91
5500;BME280;2772;42.700;23.304;2022-09-09T08:26:10;95317.31;;;24.87;86.85
5500;BME280;2772;42.700;23.304;2022-09-09T08:28:40;95316.88;;;24.92;85.32
5500;BME280;2772;42.700;23.304;2022-09-09T08:31:08;95308.72;;;24.95;86.34
5500;BME280;2772;42.700;23.304;2022-09-09T08:33:35;95306.38;;;24.94;85.09
5500;BME280;2772;42.700;23.304;2022-09-09T08:36:04;95314.13;;;25.10;84.46
5500;BME280;2772;42.700;23.304;2022-09-09T08:38:32;95311.00;;;25.18;82.61
5500;BME280;2772;42.700;23.304;2022-09-09T08:41:07;95312.09;;;25.31;82.25
5500;BME280;2772;42.700;23.304;2022-09-09T08:43:40;95306.69;;;25.35;81.11
5500;BME280;2772;42.700;23.304;2022-09-09T08:46:12;95308.63;;;25.41;81.86
5500;BME280;2772;42.700;23.304;2022-09-09T08:48:48;95298.44;;;25.49;81.49
5500;BME280;2772;42.700;23.304;2022-09-09T08:51:19;95306.63;;;25.56;79.53
5500;BME280;2772;42.700;23.304;2022-09-09T08:53:48;95298.38;;;25.63;81.04
5500;BME280;2772;42.700;23.304;2022-09-09T08:56:18;95306.09;;;25.78;79.94
5500;BME280;2772;42.700;23.304;2022-09-09T08:58:50;95293.94;;;25.90;81.34
5500;BME280;2772;42.700;23.304;2022-09-09T09:01:32;95293.09;;;26.03;79.61
5500;BME280;2772;42.700;23.304;2022-09-09T09:04:05;95300.00;;;26.18;78.49
5500;BME280;2772;42.700;23.304;2022-09-09T09:06:46;95296.88;;;26.20;77.84
5500;BME280;2772;42.700;23.304;2022-09-09T09:09:23;95300.75;;;26.26;76.16
5500;BME280;2772;42.700;23.304;2022-09-09T09:11:55;95306.25;;;26.22;77.26
5500;BME280;2772;42.700;23.304;2022-09-09T09:14:28;95301.53;;;26.26;77.96
5500;BME280;2772;42.700;23.304;2022-09-09T09:16:58;95299.22;;;26.21;77.09
5500;BME280;2772;42.700;23.304;2022-09-09T09:19:27;95301.94;;;26.25;77.22
5500;BME280;2772;42.700;23.304;2022-09-09T09:22:00;95296.81;;;26.30;76.93
5500;BME280;2772;42.700;23.304;2022-09-09T09:24:39;95296.03;;;26.30;77.63
5500;BME280;2772;42.700;23.304;2022-09-09T09:27:12;95296.38;;;26.35;77.15
5500;BME280;2772;42.700;23.304;2022-09-09T09:29:42;95296.72;;;26.44;76.65
5500;BME280;2772;42.700;23.304;2022-09-09T09:32:14;95300.13;;;26.56;76.20
5500;BME280;2772;42.700;23.304;2022-09-09T09:34:48;95286.88;;;26.54;76.13
5500;BME280;2772;42.700;23.304;2022-09-09T09:37:25;95283.28;;;26.64;77.56
5500;BME280;2772;42.700;23.304;2022-09-09T09:39:53;95284.78;;;26.72;76.25
5500;BME280;2772;42.700;23.304;2022-09-09T09:42:20;95279.19;;;26.86;75.03
5500;BME280;2772;42.700;23.304;2022-09-09T09:44:49;95278.72;;;26.95;74.29
5500;BME280;2772;42.700;23.304;2022-09-09T09:47:17;95280.63;;;26.98;74.25
5500;BME280;2772;42.700;23.304;2022-09-09T09:49:53;95276.00;;;26.91;74.61
5500;BME280;2772;42.700;23.304;2022-09-09T09:52:22;95262.78;;;26.86;74.85
5500;BME280;2772;42.700;23.304;2022-09-09T09:54:50;95264.72;;;26.86;74.85
5500;BME280;2772;42.700;23.304;2022-09-09T09:57:23;95262.78;;;26.86;75.16
5500;BME280;2772;42.700;23.304;2022-09-09T10:00:04;95250.28;;;26.85;75.64
5500;BME280;2772;42.700;23.304;2022-09-09T10:02:40;95253.72;;;26.93;75.88
5500;BME280;2772;42.700;23.304;2022-09-09T10:05:14;95268.50;;;26.99;76.61
5500;BME280;2772;42.700;23.304;2022-09-09T10:07:41;95267.25;;;27.07;75.86
5500;BME280;2772;42.700;23.304;2022-09-09T10:10:15;95270.38;;;27.05;75.88
5500;BME280;2772;42.700;23.304;2022-09-09T10:12:52;95277.81;;;27.05;76.42
5500;BME280;2772;42.700;23.304;2022-09-09T10:15:32;95279.75;;;27.04;75.71
5500;BME280;2772;42.700;23.304;2022-09-09T10:18:17;95277.91;;;26.98;76.60
5500;BME280;2772;42.700;23.304;2022-09-09T10:20:54;95279.06;;;26.97;76.06
5500;BME280;2772;42.700;23.304;2022-09-09T10:23:37;95283.94;;;26.79;75.58
5500;BME280;2772;42.700;23.304;2022-09-09T10:26:26;95279.75;;;26.67;77.25
5500;BME280;2772;42.700;23.304;2022-09-09T10:29:18;95277.41;;;26.62;77.67
5500;BME280;2772;42.700;23.304;2022-09-09T10:31:57;95277.41;;;26.69;77.98
5500;BME280;2772;42.700;23.304;2022-09-09T10:37:39;95281.53;;;26.84;77.99
5500;BME280;2772;42.700;23.304;2022-09-09T10:40:26;95287.75;;;26.88;78.59
5500;BME280;2772;42.700;23.304;2022-09-09T10:43:00;95281.66;;;26.74;79.10
5500;BME280;2772;42.700;23.304;2022-09-09T10:45:39;95290.13;;;26.83;78.68
5500;BME280;2772;42.700;23.304;2022-09-09T10:48:20;95284.75;;;26.76;79.77
5500;BME280;2772;42.700;23.304;2022-09-09T10:50:56;95289.06;;;26.73;79.26
5500;BME280;2772;42.700;23.304;2022-09-09T10:53:35;95287.19;;;26.67;79.42
5500;BME280;2772;42.700;23.304;2022-09-09T10:56:08;95284.41;;;26.70;79.92
5500;BME280;2772;42.700;23.304;2022-09-09T10:58:39;95287.84;;;26.78;80.10
5500;BME280;2772;42.700;23.304;2022-09-09T11:01:14;95288.97;;;26.84;81.16
5500;BME280;2772;42.700;23.304;2022-09-09T11:03:49;95277.94;;;26.91;79.39
5500;BME280;2772;42.700;23.304;2022-09-09T11:06:19;95274.44;;;26.90;78.75
5500;BME280;2772;42.700;23.304;2022-09-09T11:08:48;95278.34;;;26.93;78.67
5500;BME280;2772;42.700;23.304;2022-09-09T11:11:18;95284.63;;;26.90;79.72
5500;BME280;2772;42.700;23.304;2022-09-09T11:13:52;95279.63;;;26.81;80.82
5500;BME280;2772;42.700;23.304;2022-09-09T11:16:25;95275.66;;;26.86;81.06
5500;BME280;2772;42.700;23.304;2022-09-09T11:18:59;95273.31;;;26.88;82.18
5500;BME280;2772;42.700;23.304;2022-09-09T11:21:30;95268.69;;;26.78;82.68
5500;BME280;2772;42.700;23.304;2022-09-09T11:24:02;95269.06;;;26.83;83.32
5500;BME280;2772;42.700;23.304;2022-09-09T11:26:32;95265.41;;;26.93;82.75
5500;BME280;2772;42.700;23.304;2022-09-09T11:29:11;95261.09;;;26.96;83.19
5500;BME280;2772;42.700;23.304;2022-09-09T11:31:47;95254.00;;;27.02;83.13
5500;BME280;2772;42.700;23.304;2022-09-09T11:34:32;95241.53;;;27.01;83.64
5500;BME280;2772;42.700;23.304;2022-09-09T11:37:31;95236.72;;;27.12;84.24
5500;BME280;2772;42.700;23.304;2022-09-09T11:40:16;95233.84;;;27.22;83.19
5500;BME280;2772;42.700;23.304;2022-09-09T11:42:46;95221.69;;;27.27;83.21
5500;BME280;2772;42.700;23.304;2022-09-09T11:45:24;95219.19;;;27.39;81.98
5500;BME280;2772;42.700;23.304;2022-09-09T11:47:55;95207.44;;;27.42;82.60
5500;BME280;2772;42.700;23.304;2022-09-09T11:50:37;95195.59;;;27.49;82.67
5500;BME280;2772;42.700;23.304;2022-09-09T11:53:18;95180.31;;;27.51;82.99
5500;BME280;2772;42.700;23.304;2022-09-09T11:56:04;95195.00;;;27.64;81.59
5500;BME280;2772;42.700;23.304;2022-09-09T11:58:37;95197.16;;;27.50;82.99
5500;BME280;2772;42.700;23.304;2022-09-09T12:01:33;95203.25;;;27.61;82.64
5500;BME280;2772;42.700;23.304;2022-09-09T12:04:32;95202.78;;;27.66;81.38
5500;BME280;2772;42.700;23.304;2022-09-09T12:07:03;95192.56;;;27.70;81.69
5500;BME280;2772;42.700;23.304;2022-09-09T12:09:45;95187.78;;;27.77;82.12
5500;BME280;2772;42.700;23.304;2022-09-09T12:12:31;95187.78;;;27.77;81.45
5500;BME280;2772;42.700;23.304;2022-09-09T12:15:02;95177.22;;;27.76;82.35
5500;BME280;2772;42.700;23.304;2022-09-09T12:17:31;95174.88;;;27.74;83.56
5500;BME280;2772;42.700;23.304;2022-09-09T12:20:08;95170.25;;;27.71;84.23
5500;BME280;2772;42.700;23.304;2022-09-09T12:22:45;95167.16;;;27.69;84.41
5500;BME280;2772;42.700;23.304;2022-09-09T12:25:20;95174.13;;;27.74;85.24
5500;BME280;2772;42.700;23.304;2022-09-09T12:28:01;95162.44;;;27.70;85.07
5500;BME280;2772;42.700;23.304;2022-09-09T12:30:35;95162.28;;;27.80;84.70
5500;BME280;2772;42.700;23.304;2022-09-09T12:33:08;95166.56;;;27.81;84.51
5500;BME280;2772;42.700;23.304;2022-09-09T12:35:37;95157.50;;;27.88;84.68
5500;BME280;2772;42.700;23.304;2022-09-09T12:38:06;95152.94;;;27.78;84.08
5500;BME280;2772;42.700;23.304;2022-09-09T12:40:37;95157.94;;;27.83;84.15
5500;BME280;2772;42.700;23.304;2022-09-09T12:43:17;95154.19;;;27.73;84.64
5500;BME280;2772;42.700;23.304;2022-09-09T12:45:44;95154.13;;;27.77;85.00
5500;BME280;2772;42.700;23.304;2022-09-09T12:48:11;95148.25;;;27.78;84.04
5500;BME280;2772;42.700;23.304;2022-09-09T12:50:45;95140.50;;;27.73;84.32
5500;BME280;2772;42.700;23.304;2022-09-09T12:53:21;95149.81;;;27.76;84.41
5500;BME280;2772;42.700;23.304;2022-09-09T12:55:50;95136.75;;;27.87;83.86
5500;BME280;2772;42.700;23.304;2022-09-09T12:58:18;95141.97;;;27.78;84.08
5500;BME280;2772;42.700;23.304;2022-09-09T13:00:49;95148.91;;;27.86;83.45
5500;BME280;2772;42.700;23.304;2022-09-09T13:03:19;95142.63;;;27.89;83.06
5500;BME280;2772;42.700;23.304;2022-09-09T13:05:47;95143.81;;;27.88;83.42
5500;BME280;2772;42.700;23.304;2022-09-09T13:08:16;95133.19;;;27.90;83.43
5500;BME280;2772;42.700;23.304;2022-09-09T13:10:48;95141.31;;;27.97;82.26
5500;BME280;2772;42.700;23.304;2022-09-09T13:13:22;95124.41;;;28.02;82.30
5500;BME280;2772;42.700;23.304;2022-09-09T13:15:51;95135.47;;;27.95;82.65
5500;BME280;2772;42.700;23.304;2022-09-09T13:18:22;95123.03;;;27.90;83.33
5500;BME280;2772;42.700;23.304;2022-09-09T13:20:50;95120.09;;;28.01;84.07
5500;BME280;2772;42.700;23.304;2022-09-09T13:23:20;95107.19;;;28.02;84.23
5500;BME280;2772;42.700;23.304;2022-09-09T13:25:55;95100.22;;;27.97;85.17
5500;BME280;2772;42.700;23.304;2022-09-09T13:28:23;95094.50;;;28.11;85.05
5500;BME280;2772;42.700;23.304;2022-09-09T13:30:58;95095.28;;;28.12;84.60